sensor_id;sensor_type;location;lat;lon;timestamp;P1;durP1;ratioP1;P2;durP2;ratioP2
62289;SDS011;48284;46.828;29.480;2022-09-16T00:01:22;4.07;;;1.95;;
62289;SDS011;48284;46.828;29.480;2022-09-16T00:03:53;4.72;;;2.40;;
62289;SDS011;48284;46.828;29.480;2022-09-16T00:06:24;3.47;;;1.60;;
62289;SDS011;48284;46.828;29.480;2022-09-16T00:08:55;2.30;;;1.50;;
62289;SDS011;48284;46.828;29.480;2022-09-16T00:11:24;2.83;;;1.92;;
62289;SDS011;48284;46.828;29.480;2022-09-16T00:13:53;2.10;;;1.50;;
62289;SDS011;48284;46.828;29.480;2022-09-16T00:16:25;2.05;;;1.58;;
62289;SDS011;48284;46.828;29.480;2022-09-16T00:18:56;2.50;;;1.70;;
62289;SDS011;48284;46.828;29.480;2022-09-16T00:21:27;2.53;;;1.60;;
62289;SDS011;48284;46.828;29.480;2022-09-16T00:23:56;4.70;;;1.88;;
62289;SDS011;48284;46.828;29.480;2022-09-16T00:26:25;2.97;;;1.80;;
62289;SDS011;48284;46.828;29.480;2022-09-16T00:28:54;5.35;;;1.83;;
62289;SDS011;48284;46.828;29.480;2022-09-16T00:31:22;3.47;;;1.95;;
62289;SDS011;48284;46.828;29.480;2022-09-16T00:33:51;2.70;;;1.80;;
62289;SDS011;48284;46.828;29.480;2022-09-16T00:36:19;2.30;;;1.88;;
62289;SDS011;48284;46.828;29.480;2022-09-16T00:38:50;3.65;;;2.03;;
62289;SDS011;48284;46.828;29.480;2022-09-16T00:41:22;1.98;;;1.75;;
62289;SDS011;48284;46.828;29.480;2022-09-16T00:43:53;2.30;;;1.70;;
62289;SDS011;48284;46.828;29.480;2022-09-16T00:46:25;2.08;;;1.65;;
62289;SDS011;48284;46.828;29.480;2022-09-16T00:49:00;2.67;;;1.75;;
62289;SDS011;48284;46.828;29.480;2022-09-16T00:51:32;5.10;;;2.00;;
62289;SDS011;48284;46.828;29.480;2022-09-16T00:54:02;5.00;;;2.03;;
62289;SDS011;48284;46.828;29.480;2022-09-16T00:56:36;3.42;;;2.20;;
62289;SDS011;48284;46.828;29.480;2022-09-16T00:59:08;2.10;;;1.70;;
62289;SDS011;48284;46.828;29.480;2022-09-16T01:01:41;3.70;;;1.50;;
62289;SDS011;48284;46.828;29.480;2022-09-16T01:04:12;3.38;;;1.60;;
62289;SDS011;48284;46.828;29.480;2022-09-16T01:06:45;1.80;;;1.60;;
62289;SDS011;48284;46.828;29.480;2022-09-16T01:09:15;2.03;;;1.50;;
62289;SDS011;48284;46.828;29.480;2022-09-16T01:11:46;1.95;;;1.30;;
62289;SDS011;48284;46.828;29.480;2022-09-16T01:14:14;8.38;;;1.85;;
62289;SDS011;48284;46.828;29.480;2022-09-16T01:17:05;3.08;;;1.48;;
62289;SDS011;48284;46.828;29.480;2022-09-16T01:19:48;2.35;;;1.70;;
62289;SDS011;48284;46.828;29.480;2022-09-16T01:22:36;2.30;;;1.60;;
62289;SDS011;48284;46.828;29.480;2022-09-16T01:25:17;2.10;;;1.67;;
62289;SDS011;48284;46.828;29.480;2022-09-16T01:28:06;2.55;;;1.55;;
62289;SDS011;48284;46.828;29.480;2022-09-16T01:30:59;5.45;;;1.98;;
62289;SDS011;48284;46.828;29.480;2022-09-16T01:33:40;4.00;;;1.67;;
62289;SDS011;48284;46.828;29.480;2022-09-16T01:36:21;5.50;;;1.67;;
62289;SDS011;48284;46.828;29.480;2022-09-16T01:39:07;1.77;;;1.55;;
62289;SDS011;48284;46.828;29.480;2022-09-16T01:41:53;3.22;;;1.63;;
62289;SDS011;48284;46.828;29.480;2022-09-16T01:44:30;2.42;;;1.40;;
62289;SDS011;48284;46.828;29.480;2022-09-16T01:47:09;3.00;;;1.75;;
62289;SDS011;48284;46.828;29.480;2022-09-16T01:49:45;1.90;;;1.58;;
62289;SDS011;48284;46.828;29.480;2022-09-16T01:52:23;1.73;;;1.40;;
62289;SDS011;48284;46.828;29.480;2022-09-16T01:54:57;2.55;;;1.67;;
62289;SDS011;48284;46.828;29.480;2022-09-16T01:57:30;2.75;;;1.73;;
62289;SDS011;48284;46.828;29.480;2022-09-16T02:00:05;5.47;;;1.50;;
62289;SDS011;48284;46.828;29.480;2022-09-16T02:02:39;3.17;;;1.80;;
62289;SDS011;48284;46.828;29.480;2022-09-16T02:05:12;3.70;;;1.95;;
62289;SDS011;48284;46.828;29.480;2022-09-16T02:07:46;2.97;;;1.60;;
62289;SDS011;48284;46.828;29.480;2022-09-16T02:10:21;1.85;;;1.67;;
62289;SDS011;48284;46.828;29.480;2022-09-16T02:12:54;3.25;;;1.70;;
62289;SDS011;48284;46.828;29.480;2022-09-16T02:15:27;1.70;;;1.60;;
62289;SDS011;48284;46.828;29.480;2022-09-16T02:18:01;3.67;;;1.95;;
62289;SDS011;48284;46.828;29.480;2022-09-16T02:20:34;5.03;;;2.35;;
62289;SDS011;48284;46.828;29.480;2022-09-16T02:23:07;1.70;;;1.17;;
62289;SDS011;48284;46.828;29.480;2022-09-16T02:25:39;2.25;;;1.45;;
62289;SDS011;48284;46.828;29.480;2022-09-16T02:28:13;2.65;;;1.50;;
62289;SDS011;48284;46.828;29.480;2022-09-16T02:30:47;4.00;;;1.48;;
62289;SDS011;48284;46.828;29.480;2022-09-16T02:33:21;2.47;;;1.23;;
62289;SDS011;48284;46.828;29.480;2022-09-16T02:35:52;3.00;;;1.70;;
62289;SDS011;48284;46.828;29.480;2022-09-16T02:38:23;4.30;;;1.63;;
62289;SDS011;48284;46.828;29.480;2022-09-16T02:40:56;2.28;;;1.63;;
62289;SDS011;48284;46.828;29.480;2022-09-16T02:43:27;3.22;;;1.92;;
62289;SDS011;48284;46.828;29.480;2022-09-16T02:45:58;2.58;;;1.52;;
62289;SDS011;48284;46.828;29.480;2022-09-16T02:48:41;3.90;;;1.50;;
62289;SDS011;48284;46.828;29.480;2022-09-16T02:51:20;2.38;;;1.60;;
62289;SDS011;48284;46.828;29.480;2022-09-16T02:53:58;2.60;;;1.33;;
62289;SDS011;48284;46.828;29.480;2022-09-16T02:56:30;2.55;;;1.58;;
62289;SDS011;48284;46.828;29.480;2022-09-16T02:59:01;1.77;;;1.60;;
62289;SDS011;48284;46.828;29.480;2022-09-16T03:01:34;3.88;;;1.70;;
62289;SDS011;48284;46.828;29.480;2022-09-16T03:04:09;2.78;;;1.60;;
62289;SDS011;48284;46.828;29.480;2022-09-16T03:06:41;2.88;;;1.60;;
62289;SDS011;48284;46.828;29.480;2022-09-16T03:09:12;3.17;;;1.60;;
62289;SDS011;48284;46.828;29.480;2022-09-16T03:11:48;2.20;;;1.58;;
62289;SDS011;48284;46.828;29.480;2022-09-16T03:14:39;2.83;;;1.55;;
62289;SDS011;48284;46.828;29.480;2022-09-16T03:17:25;3.38;;;1.35;;
62289;SDS011;48284;46.828;29.480;2022-09-16T03:20:08;3.05;;;1.67;;
62289;SDS011;48284;46.828;29.480;2022-09-16T03:22:46;6.07;;;1.60;;
62289;SDS011;48284;46.828;29.480;2022-09-16T03:25:21;1.90;;;1.63;;
62289;SDS011;48284;46.828;29.480;2022-09-16T03:28:01;3.47;;;1.65;;
62289;SDS011;48284;46.828;29.480;2022-09-16T03:30:37;3.92;;;1.50;;
62289;SDS011;48284;46.828;29.480;2022-09-16T03:33:12;4.38;;;1.70;;
62289;SDS011;48284;46.828;29.480;2022-09-16T03:35:50;3.95;;;2.85;;
62289;SDS011;48284;46.828;29.480;2022-09-16T03:38:23;2.17;;;1.80;;
62289;SDS011;48284;46.828;29.480;2022-09-16T03:40:52;4.90;;;2.00;;
62289;SDS011;48284;46.828;29.480;2022-09-16T03:43:21;3.60;;;2.00;;
62289;SDS011;48284;46.828;29.480;2022-09-16T03:45:49;2.13;;;1.70;;
62289;SDS011;48284;46.828;29.480;2022-09-16T03:48:18;4.40;;;1.85;;
62289;SDS011;48284;46.828;29.480;2022-09-16T03:50:47;5.40;;;1.88;;
62289;SDS011;48284;46.828;29.480;2022-09-16T03:53:17;2.72;;;1.85;;
62289;SDS011;48284;46.828;29.480;2022-09-16T03:55:47;2.97;;;1.80;;
62289;SDS011;48284;46.828;29.480;2022-09-16T03:58:16;4.07;;;1.73;;
62289;SDS011;48284;46.828;29.480;2022-09-16T04:00:47;2.30;;;1.75;;
62289;SDS011;48284;46.828;29.480;2022-09-16T04:03:16;2.47;;;1.70;;
62289;SDS011;48284;46.828;29.480;2022-09-16T04:05:45;2.85;;;1.50;;
62289;SDS011;48284;46.828;29.480;2022-09-16T04:08:13;4.55;;;1.90;;
62289;SDS011;48284;46.828;29.480;2022-09-16T04:10:43;3.72;;;1.77;;
62289;SDS011;48284;46.828;29.480;2022-09-16T04:13:21;3.70;;;1.75;;
62289;SDS011;48284;46.828;29.480;2022-09-16T04:15:50;2.10;;;1.48;;
62289;SDS011;48284;46.828;29.480;2022-09-16T04:18:19;2.63;;;1.65;;
62289;SDS011;48284;46.828;29.480;2022-09-16T04:20:47;2.95;;;1.80;;
62289;SDS011;48284;46.828;29.480;2022-09-16T04:23:16;2.15;;;1.70;;
62289;SDS011;48284;46.828;29.480;2022-09-16T04:25:53;3.17;;;1.85;;
62289;SDS011;48284;46.828;29.480;2022-09-16T04:28:22;2.97;;;1.90;;
62289;SDS011;48284;46.828;29.480;2022-09-16T04:30:51;3.85;;;1.52;;
62289;SDS011;48284;46.828;29.480;2022-09-16T04:33:20;2.30;;;1.75;;
62289;SDS011;48284;46.828;29.480;2022-09-16T04:35:49;1.90;;;1.50;;
62289;SDS011;48284;46.828;29.480;2022-09-16T04:38:17;3.88;;;1.90;;
62289;SDS011;48284;46.828;29.480;2022-09-16T04:40:46;2.45;;;1.92;;
62289;SDS011;48284;46.828;29.480;2022-09-16T04:43:15;5.20;;;2.00;;
62289;SDS011;48284;46.828;29.480;2022-09-16T04:45:44;7.82;;;1.90;;
62289;SDS011;48284;46.828;29.480;2022-09-16T04:48:12;3.40;;;1.63;;
62289;SDS011;48284;46.828;29.480;2022-09-16T04:50:43;2.92;;;2.00;;
62289;SDS011;48284;46.828;29.480;2022-09-16T04:53:11;3.72;;;2.05;;
62289;SDS011;48284;46.828;29.480;2022-09-16T04:55:40;2.60;;;1.90;;
62289;SDS011;48284;46.828;29.480;2022-09-16T04:58:08;4.30;;;1.90;;
62289;SDS011;48284;46.828;29.480;2022-09-16T05:00:38;3.33;;;1.70;;
62289;SDS011;48284;46.828;29.480;2022-09-16T05:03:07;2.35;;;1.92;;
62289;SDS011;48284;46.828;29.480;2022-09-16T05:05:36;4.30;;;2.17;;
62289;SDS011;48284;46.828;29.480;2022-09-16T05:08:04;3.83;;;1.92;;
62289;SDS011;48284;46.828;29.480;2022-09-16T05:13:01;6.07;;;2.00;;
62289;SDS011;48284;46.828;29.480;2022-09-16T05:15:30;4.55;;;2.05;;
62289;SDS011;48284;46.828;29.480;2022-09-16T05:18:02;4.10;;;2.00;;
62289;SDS011;48284;46.828;29.480;2022-09-16T05:20:30;4.05;;;1.95;;
62289;SDS011;48284;46.828;29.480;2022-09-16T05:22:59;2.67;;;1.92;;
62289;SDS011;48284;46.828;29.480;2022-09-16T05:25:27;3.90;;;1.90;;
62289;SDS011;48284;46.828;29.480;2022-09-16T05:27:56;3.53;;;2.10;;
62289;SDS011;48284;46.828;29.480;2022-09-16T05:30:27;2.63;;;1.60;;
62289;SDS011;48284;46.828;29.480;2022-09-16T05:32:55;3.65;;;1.70;;
62289;SDS011;48284;46.828;29.480;2022-09-16T05:35:25;2.70;;;1.88;;
62289;SDS011;48284;46.828;29.480;2022-09-16T05:37:55;3.92;;;2.08;;
62289;SDS011;48284;46.828;29.480;2022-09-16T05:40:24;11.25;;;2.08;;
62289;SDS011;48284;46.828;29.480;2022-09-16T05:45:22;3.50;;;1.90;;
62289;SDS011;48284;46.828;29.480;2022-09-16T05:47:57;4.25;;;1.85;;
62289;SDS011;48284;46.828;29.480;2022-09-16T05:50:26;3.10;;;1.92;;
62289;SDS011;48284;46.828;29.480;2022-09-16T05:52:55;2.50;;;1.98;;
62289;SDS011;48284;46.828;29.480;2022-09-16T05:55:24;3.38;;;2.13;;
62289;SDS011;48284;46.828;29.480;2022-09-16T05:57:53;4.35;;;2.05;;
62289;SDS011;48284;46.828;29.480;2022-09-16T06:00:21;4.70;;;2.20;;
62289;SDS011;48284;46.828;29.480;2022-09-16T06:02:50;5.95;;;2.25;;
62289;SDS011;48284;46.828;29.480;2022-09-16T06:05:19;4.00;;;1.98;;
62289;SDS011;48284;46.828;29.480;2022-09-16T06:07:49;4.43;;;2.42;;
62289;SDS011;48284;46.828;29.480;2022-09-16T06:10:17;6.60;;;2.00;;
62289;SDS011;48284;46.828;29.480;2022-09-16T06:12:46;3.30;;;1.95;;
62289;SDS011;48284;46.828;29.480;2022-09-16T06:15:14;4.40;;;2.00;;
62289;SDS011;48284;46.828;29.480;2022-09-16T06:17:43;3.50;;;1.80;;
62289;SDS011;48284;46.828;29.480;2022-09-16T06:20:12;13.63;;;2.25;;
62289;SDS011;48284;46.828;29.480;2022-09-16T06:22:41;4.45;;;2.05;;
62289;SDS011;48284;46.828;29.480;2022-09-16T06:25:12;5.55;;;1.90;;
62289;SDS011;48284;46.828;29.480;2022-09-16T06:27:40;4.85;;;1.90;;
62289;SDS011;48284;46.828;29.480;2022-09-16T06:30:09;3.85;;;1.70;;
62289;SDS011;48284;46.828;29.480;2022-09-16T06:32:38;5.03;;;2.70;;
62289;SDS011;48284;46.828;29.480;2022-09-16T06:35:07;7.72;;;3.10;;
62289;SDS011;48284;46.828;29.480;2022-09-16T06:37:35;9.00;;;4.03;;
62289;SDS011;48284;46.828;29.480;2022-09-16T06:40:04;6.15;;;2.88;;
62289;SDS011;48284;46.828;29.480;2022-09-16T06:42:35;6.35;;;2.80;;
62289;SDS011;48284;46.828;29.480;2022-09-16T06:45:04;6.35;;;2.97;;
62289;SDS011;48284;46.828;29.480;2022-09-16T06:47:33;7.57;;;3.20;;
62289;SDS011;48284;46.828;29.480;2022-09-16T06:50:01;7.22;;;3.40;;
62289;SDS011;48284;46.828;29.480;2022-09-16T06:52:31;6.15;;;3.10;;
62289;SDS011;48284;46.828;29.480;2022-09-16T06:54:59;4.15;;;2.60;;
62289;SDS011;48284;46.828;29.480;2022-09-16T06:57:29;4.75;;;3.25;;
62289;SDS011;48284;46.828;29.480;2022-09-16T06:59:59;7.07;;;3.10;;
62289;SDS011;48284;46.828;29.480;2022-09-16T07:02:28;6.05;;;2.53;;
62289;SDS011;48284;46.828;29.480;2022-09-16T07:04:57;9.55;;;2.50;;
62289;SDS011;48284;46.828;29.480;2022-09-16T07:07:29;6.57;;;3.00;;
62289;SDS011;48284;46.828;29.480;2022-09-16T07:09:58;5.95;;;2.63;;
62289;SDS011;48284;46.828;29.480;2022-09-16T07:12:29;6.38;;;3.00;;
62289;SDS011;48284;46.828;29.480;2022-09-16T07:14:59;4.40;;;2.70;;
62289;SDS011;48284;46.828;29.480;2022-09-16T07:17:29;4.35;;;2.25;;
62289;SDS011;48284;46.828;29.480;2022-09-16T07:19:57;4.97;;;2.78;;
62289;SDS011;48284;46.828;29.480;2022-09-16T07:22:29;5.93;;;2.70;;
62289;SDS011;48284;46.828;29.480;2022-09-16T07:24:58;10.23;;;2.70;;
62289;SDS011;48284;46.828;29.480;2022-09-16T07:27:28;11.35;;;2.90;;
62289;SDS011;48284;46.828;29.480;2022-09-16T07:29:59;6.88;;;2.55;;
62289;SDS011;48284;46.828;29.480;2022-09-16T07:32:34;10.65;;;3.03;;
62289;SDS011;48284;46.828;29.480;2022-09-16T07:35:02;15.30;;;3.13;;
62289;SDS011;48284;46.828;29.480;2022-09-16T07:37:31;6.20;;;2.53;;
62289;SDS011;48284;46.828;29.480;2022-09-16T07:40:08;10.82;;;2.83;;
62289;SDS011;48284;46.828;29.480;2022-09-16T07:42:39;24.13;;;3.13;;
62289;SDS011;48284;46.828;29.480;2022-09-16T07:45:09;7.95;;;2.70;;
62289;SDS011;48284;46.828;29.480;2022-09-16T07:47:38;11.30;;;2.60;;
62289;SDS011;48284;46.828;29.480;2022-09-16T07:50:07;9.10;;;2.95;;
62289;SDS011;48284;46.828;29.480;2022-09-16T07:52:36;10.43;;;2.85;;
62289;SDS011;48284;46.828;29.480;2022-09-16T07:55:05;5.10;;;2.20;;
62289;SDS011;48284;46.828;29.480;2022-09-16T07:57:33;3.67;;;2.45;;
62289;SDS011;48284;46.828;29.480;2022-09-16T08:00:02;9.00;;;2.88;;
62289;SDS011;48284;46.828;29.480;2022-09-16T08:02:38;10.02;;;2.80;;
62289;SDS011;48284;46.828;29.480;2022-09-16T08:05:07;4.05;;;2.35;;
62289;SDS011;48284;46.828;29.480;2022-09-16T08:07:36;8.35;;;2.63;;
62289;SDS011;48284;46.828;29.480;2022-09-16T08:10:04;9.20;;;2.55;;
62289;SDS011;48284;46.828;29.480;2022-09-16T08:12:33;7.28;;;2.42;;
62289;SDS011;48284;46.828;29.480;2022-09-16T08:15:02;5.40;;;2.17;;
62289;SDS011;48284;46.828;29.480;2022-09-16T08:20:01;7.90;;;2.60;;
62289;SDS011;48284;46.828;29.480;2022-09-16T08:22:32;6.50;;;2.47;;
62289;SDS011;48284;46.828;29.480;2022-09-16T08:25:01;5.22;;;2.50;;
62289;SDS011;48284;46.828;29.480;2022-09-16T08:27:29;4.90;;;2.50;;
62289;SDS011;48284;46.828;29.480;2022-09-16T08:29:58;7.60;;;2.78;;
62289;SDS011;48284;46.828;29.480;2022-09-16T08:32:27;5.97;;;2.30;;
62289;SDS011;48284;46.828;29.480;2022-09-16T08:34:55;7.32;;;2.70;;
62289;SDS011;48284;46.828;29.480;2022-09-16T08:37:25;2.55;;;2.20;;
62289;SDS011;48284;46.828;29.480;2022-09-16T08:39:54;5.15;;;1.88;;
62289;SDS011;48284;46.828;29.480;2022-09-16T08:42:27;5.75;;;1.85;;
62289;SDS011;48284;46.828;29.480;2022-09-16T08:45:01;4.78;;;2.10;;
62289;SDS011;48284;46.828;29.480;2022-09-16T08:47:43;8.52;;;2.03;;
62289;SDS011;48284;46.828;29.480;2022-09-16T08:50:18;3.90;;;1.98;;
62289;SDS011;48284;46.828;29.480;2022-09-16T08:52:58;7.25;;;2.10;;
62289;SDS011;48284;46.828;29.480;2022-09-16T08:55:29;9.00;;;2.20;;
62289;SDS011;48284;46.828;29.480;2022-09-16T08:58:02;4.72;;;1.85;;
62289;SDS011;48284;46.828;29.480;2022-09-16T09:00:34;3.80;;;1.75;;
62289;SDS011;48284;46.828;29.480;2022-09-16T09:03:05;5.53;;;1.80;;
62289;SDS011;48284;46.828;29.480;2022-09-16T09:05:44;7.28;;;2.10;;
62289;SDS011;48284;46.828;29.480;2022-09-16T09:08:25;5.22;;;1.83;;
62289;SDS011;48284;46.828;29.480;2022-09-16T09:11:02;6.45;;;2.00;;
62289;SDS011;48284;46.828;29.480;2022-09-16T09:13:41;6.55;;;1.83;;
62289;SDS011;48284;46.828;29.480;2022-09-16T09:16:20;3.55;;;1.77;;
62289;SDS011;48284;46.828;29.480;2022-09-16T09:18:58;5.07;;;2.15;;
62289;SDS011;48284;46.828;29.480;2022-09-16T09:21:38;3.20;;;1.80;;
62289;SDS011;48284;46.828;29.480;2022-09-16T09:27:14;3.05;;;1.60;;
62289;SDS011;48284;46.828;29.480;2022-09-16T09:29:48;3.55;;;1.58;;
62289;SDS011;48284;46.828;29.480;2022-09-16T09:32:31;1.60;;;1.50;;
62289;SDS011;48284;46.828;29.480;2022-09-16T09:35:28;3.55;;;2.60;;
62289;SDS011;48284;46.828;29.480;2022-09-16T09:38:12;5.60;;;2.10;;
62289;SDS011;48284;46.828;29.480;2022-09-16T09:40:59;4.07;;;2.15;;
62289;SDS011;48284;46.828;29.480;2022-09-16T09:43:34;3.55;;;1.92;;
62289;SDS011;48284;46.828;29.480;2022-09-16T09:46:08;7.10;;;2.45;;
62289;SDS011;48284;46.828;29.480;2022-09-16T09:48:43;4.20;;;2.13;;
62289;SDS011;48284;46.828;29.480;2022-09-16T09:51:18;3.30;;;1.73;;
62289;SDS011;48284;46.828;29.480;2022-09-16T09:53:51;4.00;;;1.95;;
62289;SDS011;48284;46.828;29.480;2022-09-16T09:56:26;4.43;;;1.88;;
62289;SDS011;48284;46.828;29.480;2022-09-16T09:58:59;3.10;;;1.90;;
62289;SDS011;48284;46.828;29.480;2022-09-16T10:01:33;3.53;;;1.65;;
62289;SDS011;48284;46.828;29.480;2022-09-16T10:04:04;3.08;;;1.60;;
62289;SDS011;48284;46.828;29.480;2022-09-16T10:06:39;5.60;;;2.00;;
62289;SDS011;48284;46.828;29.480;2022-09-16T10:09:09;4.60;;;2.15;;
62289;SDS011;48284;46.828;29.480;2022-09-16T10:11:46;6.05;;;2.28;;
62289;SDS011;48284;46.828;29.480;2022-09-16T10:14:23;5.35;;;2.10;;
62289;SDS011;48284;46.828;29.480;2022-09-16T10:16:53;14.00;;;2.63;;
62289;SDS011;48284;46.828;29.480;2022-09-16T10:19:23;10.50;;;2.85;;
62289;SDS011;48284;46.828;29.480;2022-09-16T10:21:53;12.40;;;3.28;;
62289;SDS011;48284;46.828;29.480;2022-09-16T10:24:26;4.40;;;1.73;;
62289;SDS011;48284;46.828;29.480;2022-09-16T10:27:01;10.25;;;2.10;;
62289;SDS011;48284;46.828;29.480;2022-09-16T10:29:45;7.10;;;1.73;;
62289;SDS011;48284;46.828;29.480;2022-09-16T10:32:14;11.90;;;2.28;;
62289;SDS011;48284;46.828;29.480;2022-09-16T10:34:45;7.38;;;1.60;;
62289;SDS011;48284;46.828;29.480;2022-09-16T10:37:15;9.60;;;1.90;;
62289;SDS011;48284;46.828;29.480;2022-09-16T10:39:49;5.53;;;1.95;;
62289;SDS011;48284;46.828;29.480;2022-09-16T10:42:22;3.05;;;1.75;;
62289;SDS011;48284;46.828;29.480;2022-09-16T10:44:52;7.55;;;1.67;;
62289;SDS011;48284;46.828;29.480;2022-09-16T10:47:25;4.65;;;1.50;;
62289;SDS011;48284;46.828;29.480;2022-09-16T10:49:59;5.93;;;1.58;;
62289;SDS011;48284;46.828;29.480;2022-09-16T10:52:31;3.03;;;1.52;;
62289;SDS011;48284;46.828;29.480;2022-09-16T10:55:09;5.18;;;1.88;;
62289;SDS011;48284;46.828;29.480;2022-09-16T10:57:48;4.63;;;1.65;;
62289;SDS011;48284;46.828;29.480;2022-09-16T11:00:18;5.20;;;1.70;;
62289;SDS011;48284;46.828;29.480;2022-09-16T11:03:12;6.28;;;2.00;;
62289;SDS011;48284;46.828;29.480;2022-09-16T11:05:59;4.53;;;1.60;;
62289;SDS011;48284;46.828;29.480;2022-09-16T11:08:44;6.18;;;1.63;;
62289;SDS011;48284;46.828;29.480;2022-09-16T11:11:23;4.72;;;1.80;;
62289;SDS011;48284;46.828;29.480;2022-09-16T11:14:09;3.33;;;1.70;;
62289;SDS011;48284;46.828;29.480;2022-09-16T11:16:49;4.13;;;1.60;;
62289;SDS011;48284;46.828;29.480;2022-09-16T11:19:30;3.88;;;1.85;;
62289;SDS011;48284;46.828;29.480;2022-09-16T11:22:10;5.40;;;1.60;;
62289;SDS011;48284;46.828;29.480;2022-09-16T11:24:50;6.88;;;1.73;;
62289;SDS011;48284;46.828;29.480;2022-09-16T11:27:35;3.92;;;1.52;;
62289;SDS011;48284;46.828;29.480;2022-09-16T11:30:12;3.15;;;1.73;;
62289;SDS011;48284;46.828;29.480;2022-09-16T11:32:49;4.75;;;1.77;;
62289;SDS011;48284;46.828;29.480;2022-09-16T11:35:32;4.72;;;1.42;;
62289;SDS011;48284;46.828;29.480;2022-09-16T11:38:13;7.05;;;1.67;;
62289;SDS011;48284;46.828;29.480;2022-09-16T11:40:53;5.35;;;1.70;;
62289;SDS011;48284;46.828;29.480;2022-09-16T11:43:39;8.18;;;1.80;;
62289;SDS011;48284;46.828;29.480;2022-09-16T11:46:28;3.80;;;1.75;;
62289;SDS011;48284;46.828;29.480;2022-09-16T11:49:14;3.35;;;1.90;;
62289;SDS011;48284;46.828;29.480;2022-09-16T11:52:02;5.07;;;1.80;;
62289;SDS011;48284;46.828;29.480;2022-09-16T11:54:53;3.10;;;1.50;;
62289;SDS011;48284;46.828;29.480;2022-09-16T11:57:34;4.95;;;1.58;;
62289;SDS011;48284;46.828;29.480;2022-09-16T12:00:05;5.60;;;2.17;;
62289;SDS011;48284;46.828;29.480;2022-09-16T12:02:41;6.90;;;1.60;;
62289;SDS011;48284;46.828;29.480;2022-09-16T12:05:15;4.40;;;1.70;;
62289;SDS011;48284;46.828;29.480;2022-09-16T12:07:47;6.65;;;2.03;;
62289;SDS011;48284;46.828;29.480;2022-09-16T12:10:21;6.05;;;1.88;;
62289;SDS011;48284;46.828;29.480;2022-09-16T12:12:53;7.28;;;1.65;;
62289;SDS011;48284;46.828;29.480;2022-09-16T12:15:26;4.57;;;2.10;;
62289;SDS011;48284;46.828;29.480;2022-09-16T12:18:07;5.07;;;1.67;;
62289;SDS011;48284;46.828;29.480;2022-09-16T12:20:40;10.40;;;2.00;;
62289;SDS011;48284;46.828;29.480;2022-09-16T12:23:14;3.92;;;2.20;;
62289;SDS011;48284;46.828;29.480;2022-09-16T12:25:47;4.07;;;1.83;;
62289;SDS011;48284;46.828;29.480;2022-09-16T12:28:28;9.40;;;2.33;;
62289;SDS011;48284;46.828;29.480;2022-09-16T12:31:07;4.03;;;1.65;;
62289;SDS011;48284;46.828;29.480;2022-09-16T12:33:44;7.07;;;1.92;;
62289;SDS011;48284;46.828;29.480;2022-09-16T12:36:18;5.90;;;1.90;;
62289;SDS011;48284;46.828;29.480;2022-09-16T12:38:50;5.30;;;2.00;;
62289;SDS011;48284;46.828;29.480;2022-09-16T12:41:28;6.10;;;2.00;;
62289;SDS011;48284;46.828;29.480;2022-09-16T12:44:22;4.97;;;2.30;;
62289;SDS011;48284;46.828;29.480;2022-09-16T12:50:37;4.30;;;2.30;;
62289;SDS011;48284;46.828;29.480;2022-09-16T12:53:34;4.72;;;2.55;;
62289;SDS011;48284;46.828;29.480;2022-09-16T12:56:18;4.25;;;1.70;;
62289;SDS011;48284;46.828;29.480;2022-09-16T12:59:14;3.88;;;1.95;;
62289;SDS011;48284;46.828;29.480;2022-09-16T13:02:05;3.53;;;1.70;;
62289;SDS011;48284;46.828;29.480;2022-09-16T13:04:41;3.75;;;1.42;;
62289;SDS011;48284;46.828;29.480;2022-09-16T13:07:19;5.25;;;1.70;;
62289;SDS011;48284;46.828;29.480;2022-09-16T13:09:58;2.53;;;1.58;;
62289;SDS011;48284;46.828;29.480;2022-09-16T13:12:29;4.32;;;1.80;;
62289;SDS011;48284;46.828;29.480;2022-09-16T13:15:07;3.30;;;1.55;;
62289;SDS011;48284;46.828;29.480;2022-09-16T13:17:49;3.78;;;1.80;;
62289;SDS011;48284;46.828;29.480;2022-09-16T13:20:19;3.45;;;1.67;;
62289;SDS011;48284;46.828;29.480;2022-09-16T13:22:55;2.53;;;1.63;;
62289;SDS011;48284;46.828;29.480;2022-09-16T13:25:31;3.72;;;1.50;;
62289;SDS011;48284;46.828;29.480;2022-09-16T13:28:21;2.37;;;1.33;;
62289;SDS011;48284;46.828;29.480;2022-09-16T13:30:52;3.03;;;1.85;;
62289;SDS011;48284;46.828;29.480;2022-09-16T13:33:25;2.60;;;1.67;;
62289;SDS011;48284;46.828;29.480;2022-09-16T13:38:59;2.47;;;1.40;;
62289;SDS011;48284;46.828;29.480;2022-09-16T13:41:30;3.10;;;1.48;;
62289;SDS011;48284;46.828;29.480;2022-09-16T13:44:03;4.00;;;1.30;;
62289;SDS011;48284;46.828;29.480;2022-09-16T13:47:11;1.75;;;1.30;;
62289;SDS011;48284;46.828;29.480;2022-09-16T13:49:44;2.15;;;1.40;;
62289;SDS011;48284;46.828;29.480;2022-09-16T13:52:15;4.32;;;1.90;;
62289;SDS011;48284;46.828;29.480;2022-09-16T13:54:50;4.07;;;1.55;;
62289;SDS011;48284;46.828;29.480;2022-09-16T13:57:46;3.75;;;1.67;;
62289;SDS011;48284;46.828;29.480;2022-09-16T14:00:26;2.03;;;1.80;;
62289;SDS011;48284;46.828;29.480;2022-09-16T14:03:23;5.13;;;1.85;;
62289;SDS011;48284;46.828;29.480;2022-09-16T14:09:18;4.13;;;2.30;;
62289;SDS011;48284;46.828;29.480;2022-09-16T14:11:58;5.43;;;2.33;;
62289;SDS011;48284;46.828;29.480;2022-09-16T14:14:34;3.45;;;2.15;;
62289;SDS011;48284;46.828;29.480;2022-09-16T14:17:20;3.30;;;1.90;;
62289;SDS011;48284;46.828;29.480;2022-09-16T14:19:51;4.72;;;2.30;;
62289;SDS011;48284;46.828;29.480;2022-09-16T14:22:24;3.33;;;1.92;;
62289;SDS011;48284;46.828;29.480;2022-09-16T14:24:54;5.47;;;2.30;;
62289;SDS011;48284;46.828;29.480;2022-09-16T14:27:34;7.05;;;2.35;;
62289;SDS011;48284;46.828;29.480;2022-09-16T14:30:08;7.15;;;2.35;;
62289;SDS011;48284;46.828;29.480;2022-09-16T14:32:43;7.32;;;2.63;;
62289;SDS011;48284;46.828;29.480;2022-09-16T14:35:14;4.15;;;2.83;;
62289;SDS011;48284;46.828;29.480;2022-09-16T14:37:46;4.05;;;2.80;;
62289;SDS011;48284;46.828;29.480;2022-09-16T14:40:18;7.53;;;3.50;;
62289;SDS011;48284;46.828;29.480;2022-09-16T14:42:52;13.65;;;4.57;;
62289;SDS011;48284;46.828;29.480;2022-09-16T14:45:24;10.65;;;4.70;;
62289;SDS011;48284;46.828;29.480;2022-09-16T14:47:53;11.70;;;5.20;;
62289;SDS011;48284;46.828;29.480;2022-09-16T14:50:25;8.27;;;5.28;;
62289;SDS011;48284;46.828;29.480;2022-09-16T14:52:56;9.80;;;4.88;;
62289;SDS011;48284;46.828;29.480;2022-09-16T14:55:27;7.00;;;5.45;;
62289;SDS011;48284;46.828;29.480;2022-09-16T14:57:58;6.97;;;5.40;;
62289;SDS011;48284;46.828;29.480;2022-09-16T15:00:29;11.50;;;6.32;;
62289;SDS011;48284;46.828;29.480;2022-09-16T15:03:04;7.88;;;5.30;;
62289;SDS011;48284;46.828;29.480;2022-09-16T15:05:42;7.40;;;4.55;;
62289;SDS011;48284;46.828;29.480;2022-09-16T15:08:14;9.55;;;5.18;;
62289;SDS011;48284;46.828;29.480;2022-09-16T15:10:46;8.27;;;4.88;;
62289;SDS011;48284;46.828;29.480;2022-09-16T15:13:21;8.35;;;5.07;;
62289;SDS011;48284;46.828;29.480;2022-09-16T15:15:53;10.45;;;5.30;;
62289;SDS011;48284;46.828;29.480;2022-09-16T15:18:25;8.10;;;4.38;;
62289;SDS011;48284;46.828;29.480;2022-09-16T15:20:58;8.10;;;4.68;;
62289;SDS011;48284;46.828;29.480;2022-09-16T15:23:32;7.35;;;4.35;;
62289;SDS011;48284;46.828;29.480;2022-09-16T15:26:08;6.30;;;4.43;;
62289;SDS011;48284;46.828;29.480;2022-09-16T15:28:52;7.90;;;4.57;;
62289;SDS011;48284;46.828;29.480;2022-09-16T15:31:31;7.93;;;4.28;;
62289;SDS011;48284;46.828;29.480;2022-09-16T15:34:03;7.07;;;3.73;;